sensor_id;sensor_type;location;lat;lon;timestamp;P1;durP1;ratioP1;P2;durP2;ratioP2
25780;SDS011;13626;48.128;11.628;2023-06-24T00:00:23;2.97;;;2.67;;
25780;SDS011;13626;48.128;11.628;2023-06-24T00:02:51;3.40;;;2.67;;
25780;SDS011;13626;48.128;11.628;2023-06-24T00:05:20;4.63;;;2.92;;
25780;SDS011;13626;48.128;11.628;2023-06-24T00:07:47;3.90;;;3.15;;
25780;SDS011;13626;48.128;11.628;2023-06-24T00:10:15;2.85;;;2.45;;
25780;SDS011;13626;48.128;11.628;2023-06-24T00:12:44;3.33;;;2.97;;
25780;SDS011;13626;48.128;11.628;2023-06-24T00:15:11;3.50;;;2.95;;
25780;SDS011;13626;48.128;11.628;2023-06-24T00:17:39;4.68;;;2.85;;
25780;SDS011;13626;48.128;11.628;2023-06-24T00:20:07;3.40;;;2.83;;
25780;SDS011;13626;48.128;11.628;2023-06-24T00:22:37;3.35;;;2.90;;
25780;SDS011;13626;48.128;11.628;2023-06-24T00:25:15;3.97;;;2.90;;
25780;SDS011;13626;48.128;11.628;2023-06-24T00:27:43;3.38;;;2.83;;
25780;SDS011;13626;48.128;11.628;2023-06-24T00:30:10;3.28;;;2.80;;
25780;SDS011;13626;48.128;11.628;2023-06-24T00:32:37;4.25;;;2.72;;
25780;SDS011;13626;48.128;11.628;2023-06-24T00:35:05;3.55;;;3.13;;
25780;SDS011;13626;48.128;11.628;2023-06-24T00:37:32;4.43;;;2.95;;
25780;SDS011;13626;48.128;11.628;2023-06-24T00:39:59;3.80;;;3.25;;
25780;SDS011;13626;48.128;11.628;2023-06-24T00:42:26;3.30;;;3.00;;
25780;SDS011;13626;48.128;11.628;2023-06-24T00:44:54;3.65;;;2.97;;
25780;SDS011;13626;48.128;11.628;2023-06-24T00:47:21;3.33;;;3.03;;
25780;SDS011;13626;48.128;11.628;2023-06-24T00:49:50;4.00;;;3.00;;
25780;SDS011;13626;48.128;11.628;2023-06-24T00:52:17;3.83;;;2.72;;
25780;SDS011;13626;48.128;11.628;2023-06-24T00:54:44;3.38;;;3.03;;
25780;SDS011;13626;48.128;11.628;2023-06-24T00:57:11;4.68;;;3.55;;
25780;SDS011;13626;48.128;11.628;2023-06-24T00:59:39;3.70;;;2.80;;
25780;SDS011;13626;48.128;11.628;2023-06-24T01:02:09;5.05;;;3.20;;
25780;SDS011;13626;48.128;11.628;2023-06-24T01:04:37;3.88;;;3.00;;
25780;SDS011;13626;48.128;11.628;2023-06-24T01:07:04;4.68;;;2.83;;
25780;SDS011;13626;48.128;11.628;2023-06-24T01:09:32;4.43;;;2.80;;
25780;SDS011;13626;48.128;11.628;2023-06-24T01:12:00;3.67;;;3.00;;
25780;SDS011;13626;48.128;11.628;2023-06-24T01:14:27;3.90;;;3.17;;
25780;SDS011;13626;48.128;11.628;2023-06-24T01:17:13;3.80;;;3.22;;
25780;SDS011;13626;48.128;11.628;2023-06-24T01:20:03;3.58;;;3.13;;
25780;SDS011;13626;48.128;11.628;2023-06-24T01:33:20;3.75;;;3.08;;
25780;SDS011;13626;48.128;11.628;2023-06-24T01:35:49;4.00;;;3.53;;
25780;SDS011;13626;48.128;11.628;2023-06-24T01:38:29;4.03;;;3.08;;
25780;SDS011;13626;48.128;11.628;2023-06-24T01:40:57;4.55;;;3.47;;
25780;SDS011;13626;48.128;11.628;2023-06-24T01:43:25;3.50;;;2.90;;
25780;SDS011;13626;48.128;11.628;2023-06-24T01:45:52;4.13;;;3.33;;
25780;SDS011;13626;48.128;11.628;2023-06-24T01:48:28;3.65;;;3.20;;
25780;SDS011;13626;48.128;11.628;2023-06-24T01:51:29;4.93;;;3.42;;
25780;SDS011;13626;48.128;11.628;2023-06-24T01:53:52;3.58;;;2.95;;
25780;SDS011;13626;48.128;11.628;2023-06-24T01:56:21;3.45;;;2.95;;
25780;SDS011;13626;48.128;11.628;2023-06-24T01:58:51;3.70;;;2.80;;
25780;SDS011;13626;48.128;11.628;2023-06-24T02:01:19;3.50;;;3.15;;
25780;SDS011;13626;48.128;11.628;2023-06-24T02:03:46;4.57;;;3.40;;
25780;SDS011;13626;48.128;11.628;2023-06-24T02:06:15;3.20;;;2.72;;
25780;SDS011;13626;48.128;11.628;2023-06-24T02:08:43;3.50;;;3.05;;
25780;SDS011;13626;48.128;11.628;2023-06-24T02:11:11;3.80;;;3.10;;
25780;SDS011;13626;48.128;11.628;2023-06-24T02:13:39;3.40;;;2.80;;
25780;SDS011;13626;48.128;11.628;2023-06-24T02:16:07;4.05;;;3.13;;
25780;SDS011;13626;48.128;11.628;2023-06-24T02:18:35;3.80;;;3.10;;
25780;SDS011;13626;48.128;11.628;2023-06-24T02:21:03;5.35;;;3.38;;
25780;SDS011;13626;48.128;11.628;2023-06-24T02:23:31;3.90;;;3.30;;
25780;SDS011;13626;48.128;11.628;2023-06-24T02:26:00;6.03;;;3.47;;
25780;SDS011;13626;48.128;11.628;2023-06-24T02:28:28;5.93;;;2.92;;
25780;SDS011;13626;48.128;11.628;2023-06-24T02:30:56;3.60;;;3.28;;
25780;SDS011;13626;48.128;11.628;2023-06-24T02:33:24;3.83;;;3.13;;
25780;SDS011;13626;48.128;11.628;2023-06-24T02:35:52;4.40;;;3.13;;
25780;SDS011;13626;48.128;11.628;2023-06-24T02:38:19;3.53;;;3.22;;
25780;SDS011;13626;48.128;11.628;2023-06-24T02:40:47;3.28;;;2.97;;
25780;SDS011;13626;48.128;11.628;2023-06-24T02:43:14;4.72;;;3.22;;
25780;SDS011;13626;48.128;11.628;2023-06-24T02:45:41;5.60;;;3.20;;
25780;SDS011;13626;48.128;11.628;2023-06-24T02:48:08;4.85;;;3.22;;
25780;SDS011;13626;48.128;11.628;2023-06-24T02:50:37;5.22;;;3.75;;
25780;SDS011;13626;48.128;11.628;2023-06-24T02:53:04;3.88;;;3.10;;
25780;SDS011;13626;48.128;11.628;2023-06-24T02:55:32;3.75;;;3.17;;
25780;SDS011;13626;48.128;11.628;2023-06-24T02:58:01;4.88;;;3.40;;
25780;SDS011;13626;48.128;11.628;2023-06-24T03:00:29;5.13;;;3.28;;
25780;SDS011;13626;48.128;11.628;2023-06-24T03:03:01;4.05;;;3.55;;
25780;SDS011;13626;48.128;11.628;2023-06-24T03:05:29;3.88;;;3.40;;
25780;SDS011;13626;48.128;11.628;2023-06-24T03:07:57;4.28;;;3.03;;
25780;SDS011;13626;48.128;11.628;2023-06-24T03:10:25;4.05;;;3.35;;
25780;SDS011;13626;48.128;11.628;2023-06-24T03:12:52;4.97;;;3.83;;
25780;SDS011;13626;48.128;11.628;2023-06-24T03:15:19;4.60;;;3.50;;
25780;SDS011;13626;48.128;11.628;2023-06-24T03:17:47;5.78;;;3.60;;
25780;SDS011;13626;48.128;11.628;2023-06-24T03:20:14;3.50;;;3.13;;
25780;SDS011;13626;48.128;11.628;2023-06-24T03:22:41;4.53;;;3.80;;
25780;SDS011;13626;48.128;11.628;2023-06-24T03:25:09;5.65;;;3.88;;
25780;SDS011;13626;48.128;11.628;2023-06-24T03:27:36;4.45;;;3.60;;
25780;SDS011;13626;48.128;11.628;2023-06-24T03:30:03;4.57;;;3.40;;
25780;SDS011;13626;48.128;11.628;2023-06-24T03:32:31;4.70;;;3.75;;
25780;SDS011;13626;48.128;11.628;2023-06-24T03:35:02;4.95;;;3.60;;
25780;SDS011;13626;48.128;11.628;2023-06-24T03:37:29;4.45;;;3.35;;
25780;SDS011;13626;48.128;11.628;2023-06-24T03:39:56;4.85;;;3.60;;
25780;SDS011;13626;48.128;11.628;2023-06-24T03:42:23;4.43;;;3.33;;
25780;SDS011;13626;48.128;11.628;2023-06-24T03:44:51;4.60;;;3.55;;
25780;SDS011;13626;48.128;11.628;2023-06-24T03:47:18;3.78;;;3.38;;
25780;SDS011;13626;48.128;11.628;2023-06-24T03:49:45;4.43;;;3.17;;
25780;SDS011;13626;48.128;11.628;2023-06-24T03:52:12;4.47;;;3.42;;
25780;SDS011;13626;48.128;11.628;2023-06-24T03:54:39;4.47;;;3.50;;
25780;SDS011;13626;48.128;11.628;2023-06-24T03:57:07;3.63;;;3.15;;
25780;SDS011;13626;48.128;11.628;2023-06-24T03:59:35;4.43;;;3.60;;
25780;SDS011;13626;48.128;11.628;2023-06-24T04:02:02;4.05;;;3.42;;
25780;SDS011;13626;48.128;11.628;2023-06-24T04:04:34;4.32;;;3.55;;
25780;SDS011;13626;48.128;11.628;2023-06-24T04:07:01;5.20;;;3.78;;
25780;SDS011;13626;48.128;11.628;2023-06-24T04:09:35;4.00;;;3.47;;
25780;SDS011;13626;48.128;11.628;2023-06-24T04:12:02;4.65;;;3.60;;
25780;SDS011;13626;48.128;11.628;2023-06-24T04:14:29;4.28;;;3.17;;
25780;SDS011;13626;48.128;11.628;2023-06-24T04:16:56;3.92;;;3.53;;
25780;SDS011;13626;48.128;11.628;2023-06-24T04:19:23;3.63;;;3.30;;
25780;SDS011;13626;48.128;11.628;2023-06-24T04:21:51;3.88;;;3.35;;
25780;SDS011;13626;48.128;11.628;2023-06-24T04:24:18;3.42;;;3.13;;
25780;SDS011;13626;48.128;11.628;2023-06-24T04:26:45;3.60;;;3.20;;
25780;SDS011;13626;48.128;11.628;2023-06-24T04:29:12;4.60;;;3.20;;
25780;SDS011;13626;48.128;11.628;2023-06-24T04:31:39;3.50;;;2.97;;
25780;SDS011;13626;48.128;11.628;2023-06-24T04:34:07;5.05;;;3.08;;
25780;SDS011;13626;48.128;11.628;2023-06-24T04:36:34;4.43;;;3.40;;
25780;SDS011;13626;48.128;11.628;2023-06-24T04:39:01;4.07;;;3.15;;
25780;SDS011;13626;48.128;11.628;2023-06-24T04:41:29;4.97;;;3.60;;
25780;SDS011;13626;48.128;11.628;2023-06-24T04:43:58;4.10;;;3.30;;
25780;SDS011;13626;48.128;11.628;2023-06-24T04:46:25;4.68;;;3.35;;
25780;SDS011;13626;48.128;11.628;2023-06-24T04:48:52;4.32;;;3.35;;
25780;SDS011;13626;48.128;11.628;2023-06-24T04:51:19;4.95;;;3.47;;
25780;SDS011;13626;48.128;11.628;2023-06-24T04:53:46;5.70;;;3.38;;
25780;SDS011;13626;48.128;11.628;2023-06-24T04:56:14;4.53;;;3.20;;
25780;SDS011;13626;48.128;11.628;2023-06-24T04:58:41;4.13;;;3.33;;
25780;SDS011;13626;48.128;11.628;2023-06-24T05:01:09;4.50;;;3.42;;
25780;SDS011;13626;48.128;11.628;2023-06-24T05:03:36;3.70;;;3.05;;
25780;SDS011;13626;48.128;11.628;2023-06-24T05:06:03;4.63;;;3.50;;
25780;SDS011;13626;48.128;11.628;2023-06-24T05:08:31;6.25;;;3.55;;
25780;SDS011;13626;48.128;11.628;2023-06-24T05:10:58;5.43;;;3.60;;
25780;SDS011;13626;48.128;11.628;2023-06-24T05:13:26;3.60;;;3.10;;
25780;SDS011;13626;48.128;11.628;2023-06-24T05:15:53;3.78;;;3.13;;
25780;SDS011;13626;48.128;11.628;2023-06-24T05:18:21;3.67;;;3.17;;
25780;SDS011;13626;48.128;11.628;2023-06-24T05:20:48;4.13;;;3.58;;
25780;SDS011;13626;48.128;11.628;2023-06-24T05:23:15;3.38;;;3.00;;
25780;SDS011;13626;48.128;11.628;2023-06-24T05:25:42;3.67;;;3.35;;
25780;SDS011;13626;48.128;11.628;2023-06-24T05:28:09;3.90;;;3.30;;
25780;SDS011;13626;48.128;11.628;2023-06-24T05:30:37;4.95;;;3.20;;
25780;SDS011;13626;48.128;11.628;2023-06-24T05:33:05;6.32;;;3.70;;
25780;SDS011;13626;48.128;11.628;2023-06-24T05:35:35;3.45;;;3.15;;
25780;SDS011;13626;48.128;11.628;2023-06-24T05:38:06;4.22;;;3.38;;
25780;SDS011;13626;48.128;11.628;2023-06-24T05:40:33;3.47;;;3.17;;
25780;SDS011;13626;48.128;11.628;2023-06-24T05:43:00;5.90;;;3.40;;
25780;SDS011;13626;48.128;11.628;2023-06-24T05:45:29;4.85;;;2.97;;
25780;SDS011;13626;48.128;11.628;2023-06-24T05:47:56;3.85;;;3.20;;
25780;SDS011;13626;48.128;11.628;2023-06-24T05:50:23;3.70;;;3.38;;
25780;SDS011;13626;48.128;11.628;2023-06-24T05:52:51;3.38;;;2.95;;
25780;SDS011;13626;48.128;11.628;2023-06-24T05:55:18;3.92;;;3.47;;
25780;SDS011;13626;48.128;11.628;2023-06-24T05:57:46;3.75;;;3.17;;
25780;SDS011;13626;48.128;11.628;2023-06-24T06:00:13;4.22;;;3.30;;
25780;SDS011;13626;48.128;11.628;2023-06-24T06:02:40;6.18;;;3.22;;
25780;SDS011;13626;48.128;11.628;2023-06-24T06:05:08;3.40;;;3.10;;
25780;SDS011;13626;48.128;11.628;2023-06-24T06:07:35;4.00;;;3.00;;
25780;SDS011;13626;48.128;11.628;2023-06-24T06:10:05;3.88;;;3.05;;
25780;SDS011;13626;48.128;11.628;2023-06-24T06:12:32;3.90;;;2.92;;
25780;SDS011;13626;48.128;11.628;2023-06-24T06:15:00;3.80;;;3.28;;
25780;SDS011;13626;48.128;11.628;2023-06-24T06:17:27;5.80;;;3.15;;
25780;SDS011;13626;48.128;11.628;2023-06-24T06:19:54;6.20;;;3.13;;
25780;SDS011;13626;48.128;11.628;2023-06-24T06:22:21;4.90;;;3.28;;
25780;SDS011;13626;48.128;11.628;2023-06-24T06:24:48;3.53;;;3.22;;
25780;SDS011;13626;48.128;11.628;2023-06-24T06:27:16;3.42;;;3.10;;
25780;SDS011;13626;48.128;11.628;2023-06-24T06:29:43;4.60;;;2.95;;
25780;SDS011;13626;48.128;11.628;2023-06-24T06:32:10;3.60;;;3.22;;
25780;SDS011;13626;48.128;11.628;2023-06-24T06:34:37;4.47;;;3.20;;
25780;SDS011;13626;48.128;11.628;2023-06-24T06:37:05;3.50;;;3.10;;
25780;SDS011;13626;48.128;11.628;2023-06-24T06:39:32;4.78;;;3.05;;
25780;SDS011;13626;48.128;11.628;2023-06-24T06:41:59;3.47;;;3.03;;
25780;SDS011;13626;48.128;11.628;2023-06-24T06:44:26;4.78;;;3.60;;
25780;SDS011;13626;48.128;11.628;2023-06-24T06:46:53;3.33;;;2.75;;
25780;SDS011;13626;48.128;11.628;2023-06-24T06:49:21;3.83;;;2.85;;
25780;SDS011;13626;48.128;11.628;2023-06-24T06:51:48;3.10;;;2.80;;
25780;SDS011;13626;48.128;11.628;2023-06-24T06:54:15;3.50;;;3.20;;
25780;SDS011;13626;48.128;11.628;2023-06-24T06:56:42;3.90;;;3.10;;
25780;SDS011;13626;48.128;11.628;2023-06-24T06:59:10;4.22;;;2.75;;
25780;SDS011;13626;48.128;11.628;2023-06-24T07:01:37;3.30;;;3.00;;
25780;SDS011;13626;48.128;11.628;2023-06-24T07:04:04;3.70;;;3.15;;
25780;SDS011;13626;48.128;11.628;2023-06-24T07:06:31;3.00;;;2.70;;
25780;SDS011;13626;48.128;11.628;2023-06-24T07:08:59;3.10;;;2.80;;
25780;SDS011;13626;48.128;11.628;2023-06-24T07:11:26;4.15;;;2.80;;
25780;SDS011;13626;48.128;11.628;2023-06-24T07:13:53;3.22;;;2.92;;
25780;SDS011;13626;48.128;11.628;2023-06-24T07:16:20;3.05;;;2.85;;
25780;SDS011;13626;48.128;11.628;2023-06-24T07:18:47;3.22;;;2.90;;
25780;SDS011;13626;48.128;11.628;2023-06-24T07:21:15;3.65;;;2.63;;
25780;SDS011;13626;48.128;11.628;2023-06-24T07:23:42;3.63;;;2.58;;
25780;SDS011;13626;48.128;11.628;2023-06-24T07:26:09;3.05;;;2.75;;
25780;SDS011;13626;48.128;11.628;2023-06-24T07:28:36;3.78;;;2.70;;
25780;SDS011;13626;48.128;11.628;2023-06-24T07:31:03;2.63;;;2.42;;
25780;SDS011;13626;48.128;11.628;2023-06-24T07:33:31;3.55;;;2.58;;
25780;SDS011;13626;48.128;11.628;2023-06-24T07:35:58;3.70;;;2.90;;
25780;SDS011;13626;48.128;11.628;2023-06-24T07:38:25;3.55;;;2.70;;
25780;SDS011;13626;48.128;11.628;2023-06-24T07:40:52;3.63;;;3.05;;
25780;SDS011;13626;48.128;11.628;2023-06-24T07:43:19;2.63;;;2.42;;
25780;SDS011;13626;48.128;11.628;2023-06-24T07:45:47;3.53;;;2.72;;
25780;SDS011;13626;48.128;11.628;2023-06-24T07:48:14;2.40;;;2.20;;
25780;SDS011;13626;48.128;11.628;2023-06-24T07:50:41;3.00;;;2.70;;
25780;SDS011;13626;48.128;11.628;2023-06-24T07:53:08;4.85;;;3.55;;
25780;SDS011;13626;48.128;11.628;2023-06-24T07:55:38;4.78;;;3.30;;
25780;SDS011;13626;48.128;11.628;2023-06-24T07:58:09;3.35;;;2.60;;
25780;SDS011;13626;48.128;11.628;2023-06-24T08:00:36;2.75;;;2.55;;
25780;SDS011;13626;48.128;11.628;2023-06-24T08:03:05;3.70;;;3.30;;
25780;SDS011;13626;48.128;11.628;2023-06-24T08:05:32;2.92;;;2.72;;
25780;SDS011;13626;48.128;11.628;2023-06-24T08:08:00;3.15;;;2.85;;
25780;SDS011;13626;48.128;11.628;2023-06-24T08:10:27;3.90;;;2.97;;
25780;SDS011;13626;48.128;11.628;2023-06-24T08:12:54;2.80;;;2.60;;
25780;SDS011;13626;48.128;11.628;2023-06-24T08:15:21;4.70;;;3.20;;
25780;SDS011;13626;48.128;11.628;2023-06-24T08:17:52;3.75;;;3.05;;
25780;SDS011;13626;48.128;11.628;2023-06-24T08:20:20;3.15;;;2.88;;
25780;SDS011;13626;48.128;11.628;2023-06-24T08:22:47;3.58;;;3.28;;
25780;SDS011;13626;48.128;11.628;2023-06-24T08:25:15;3.88;;;3.20;;
25780;SDS011;13626;48.128;11.628;2023-06-24T08:27:42;2.97;;;2.75;;
25780;SDS011;13626;48.128;11.628;2023-06-24T08:30:13;3.70;;;3.00;;
25780;SDS011;13626;48.128;11.628;2023-06-24T08:32:44;4.40;;;3.15;;
25780;SDS011;13626;48.128;11.628;2023-06-24T08:35:11;3.70;;;2.88;;
25780;SDS011;13626;48.128;11.628;2023-06-24T08:37:39;4.53;;;3.35;;
25780;SDS011;13626;48.128;11.628;2023-06-24T08:40:07;4.22;;;2.72;;
25780;SDS011;13626;48.128;11.628;2023-06-24T08:42:35;3.55;;;3.25;;
25780;SDS011;13626;48.128;11.628;2023-06-24T08:45:02;3.47;;;3.03;;
25780;SDS011;13626;48.128;11.628;2023-06-24T08:47:29;4.40;;;3.20;;
25780;SDS011;13626;48.128;11.628;2023-06-24T08:50:15;3.75;;;3.42;;
25780;SDS011;13626;48.128;11.628;2023-06-24T08:52:44;3.97;;;3.55;;
25780;SDS011;13626;48.128;11.628;2023-06-24T08:55:13;4.72;;;3.60;;
25780;SDS011;13626;48.128;11.628;2023-06-24T09:00:11;4.03;;;3.30;;
25780;SDS011;13626;48.128;11.628;2023-06-24T09:02:40;6.68;;;3.05;;
25780;SDS011;13626;48.128;11.628;2023-06-24T09:05:07;3.45;;;3.15;;
25780;SDS011;13626;48.128;11.628;2023-06-24T09:07:35;5.90;;;3.67;;
25780;SDS011;13626;48.128;11.628;2023-06-24T09:10:02;4.13;;;3.72;;
25780;SDS011;13626;48.128;11.628;2023-06-24T09:12:33;6.25;;;3.63;;
25780;SDS011;13626;48.128;11.628;2023-06-24T09:15:01;4.90;;;4.18;;
25780;SDS011;13626;48.128;11.628;2023-06-24T09:17:29;4.40;;;3.90;;
25780;SDS011;13626;48.128;11.628;2023-06-24T09:20:03;3.95;;;3.55;;
25780;SDS011;13626;48.128;11.628;2023-06-24T09:22:31;3.95;;;3.55;;
25780;SDS011;13626;48.128;11.628;2023-06-24T09:25:00;4.68;;;4.22;;
25780;SDS011;13626;48.128;11.628;2023-06-24T09:27:31;4.40;;;3.97;;
25780;SDS011;13626;48.128;11.628;2023-06-24T09:29:59;4.32;;;3.70;;
25780;SDS011;13626;48.128;11.628;2023-06-24T09:32:29;8.02;;;4.10;;
25780;SDS011;13626;48.128;11.628;2023-06-24T09:34:57;4.93;;;3.95;;
25780;SDS011;13626;48.128;11.628;2023-06-24T09:37:29;4.18;;;3.55;;
25780;SDS011;13626;48.128;11.628;2023-06-24T09:39:58;4.80;;;3.92;;
25780;SDS011;13626;48.128;11.628;2023-06-24T09:42:27;5.05;;;3.85;;
25780;SDS011;13626;48.128;11.628;2023-06-24T09:44:54;4.70;;;3.90;;
25780;SDS011;13626;48.128;11.628;2023-06-24T09:47:22;6.40;;;4.07;;
25780;SDS011;13626;48.128;11.628;2023-06-24T09:49:54;4.32;;;3.90;;
25780;SDS011;13626;48.128;11.628;2023-06-24T09:52:22;6.32;;;4.60;;
25780;SDS011;13626;48.128;11.628;2023-06-24T09:54:50;5.35;;;4.45;;
25780;SDS011;13626;48.128;11.628;2023-06-24T09:57:20;3.92;;;3.58;;
25780;SDS011;13626;48.128;11.628;2023-06-24T09:59:50;4.93;;;4.38;;
25780;SDS011;13626;48.128;11.628;2023-06-24T10:02:18;5.82;;;4.53;;
25780;SDS011;13626;48.128;11.628;2023-06-24T10:04:46;5.95;;;3.60;;
25780;SDS011;13626;48.128;11.628;2023-06-24T10:07:13;4.05;;;3.55;;
25780;SDS011;13626;48.128;11.628;2023-06-24T10:09:41;5.18;;;4.10;;
25780;SDS011;13626;48.128;11.628;2023-06-24T10:12:09;5.85;;;4.07;;
25780;SDS011;13626;48.128;11.628;2023-06-24T10:14:37;7.05;;;3.65;;
25780;SDS011;13626;48.128;11.628;2023-06-24T10:17:04;4.15;;;3.78;;
25780;SDS011;13626;48.128;11.628;2023-06-24T10:19:37;7.90;;;4.07;;
25780;SDS011;13626;48.128;11.628;2023-06-24T10:22:08;5.03;;;3.92;;
25780;SDS011;13626;48.128;11.628;2023-06-24T10:24:37;5.50;;;3.65;;
25780;SDS011;13626;48.128;11.628;2023-06-24T10:27:13;5.78;;;3.88;;
25780;SDS011;13626;48.128;11.628;2023-06-24T10:29:48;5.75;;;3.75;;
25780;SDS011;13626;48.128;11.628;2023-06-24T10:32:15;4.00;;;3.60;;
25780;SDS011;13626;48.128;11.628;2023-06-24T10:34:44;4.30;;;3.75;;
25780;SDS011;13626;48.128;11.628;2023-06-24T10:37:12;4.28;;;3.45;;
25780;SDS011;13626;48.128;11.628;2023-06-24T10:44:51;5.30;;;3.75;;
25780;SDS011;13626;48.128;11.628;2023-06-24T10:47:18;4.53;;;3.70;;
25780;SDS011;13626;48.128;11.628;2023-06-24T10:49:46;5.35;;;3.85;;
25780;SDS011;13626;48.128;11.628;2023-06-24T10:52:13;4.53;;;4.10;;
25780;SDS011;13626;48.128;11.628;2023-06-24T10:54:41;4.63;;;3.88;;
25780;SDS011;13626;48.128;11.628;2023-06-24T10:57:10;4.43;;;4.03;;
25780;SDS011;13626;48.128;11.628;2023-06-24T10:59:40;4.05;;;3.65;;
25780;SDS011;13626;48.128;11.628;2023-06-24T11:02:15;4.55;;;4.15;;
25780;SDS011;13626;48.128;11.628;2023-06-24T11:04:44;5.43;;;4.35;;
25780;SDS011;13626;48.128;11.628;2023-06-24T11:07:12;6.32;;;4.35;;
25780;SDS011;13626;48.128;11.628;2023-06-24T11:09:40;7.22;;;4.13;;
25780;SDS011;13626;48.128;11.628;2023-06-24T11:12:09;4.70;;;4.30;;
25780;SDS011;13626;48.128;11.628;2023-06-24T11:14:39;6.38;;;4.25;;
25780;SDS011;13626;48.128;11.628;2023-06-24T11:17:07;4.65;;;4.22;;
25780;SDS011;13626;48.128;11.628;2023-06-24T11:19:34;6.97;;;4.40;;
25780;SDS011;13626;48.128;11.628;2023-06-24T11:22:05;4.97;;;4.47;;
25780;SDS011;13626;48.128;11.628;2023-06-24T11:24:33;5.75;;;4.10;;
25780;SDS011;13626;48.128;11.628;2023-06-24T11:27:01;4.65;;;4.15;;
25780;SDS011;13626;48.128;11.628;2023-06-24T11:29:29;5.85;;;4.10;;
25780;SDS011;13626;48.128;11.628;2023-06-24T11:31:56;4.38;;;3.97;;
25780;SDS011;13626;48.128;11.628;2023-06-24T11:34:23;5.28;;;4.18;;
25780;SDS011;13626;48.128;11.628;2023-06-24T11:36:51;5.82;;;4.18;;
25780;SDS011;13626;48.128;11.628;2023-06-24T11:39:22;5.00;;;3.80;;
25780;SDS011;13626;48.128;11.628;2023-06-24T11:41:50;4.25;;;3.85;;
25780;SDS011;13626;48.128;11.628;2023-06-24T11:44:20;6.40;;;4.05;;
25780;SDS011;13626;48.128;11.628;2023-06-24T11:46:48;5.68;;;4.10;;
25780;SDS011;13626;48.128;11.628;2023-06-24T11:49:15;6.97;;;3.78;;
25780;SDS011;13626;48.128;11.628;2023-06-24T11:51:49;6.88;;;3.78;;
25780;SDS011;13626;48.128;11.628;2023-06-24T11:54:17;4.20;;;3.80;;
25780;SDS011;13626;48.128;11.628;2023-06-24T11:56:52;4.20;;;3.80;;
25780;SDS011;13626;48.128;11.628;2023-06-24T11:59:20;7.40;;;4.93;;
25780;SDS011;13626;48.128;11.628;2023-06-24T12:01:57;4.10;;;3.70;;
25780;SDS011;13626;48.128;11.628;2023-06-24T12:04:29;5.03;;;4.20;;
25780;SDS011;13626;48.128;11.628;2023-06-24T12:06:58;4.57;;;4.15;;
25780;SDS011;13626;48.128;11.628;2023-06-24T12:09:26;4.75;;;4.28;;
25780;SDS011;13626;48.128;11.628;2023-06-24T12:12:08;6.65;;;4.00;;
25780;SDS011;13626;48.128;11.628;2023-06-24T12:14:36;5.20;;;4.03;;
25780;SDS011;13626;48.128;11.628;2023-06-24T12:17:03;4.22;;;3.55;;
25780;SDS011;13626;48.128;11.628;2023-06-24T12:19:30;5.55;;;3.47;;
25780;SDS011;13626;48.128;11.628;2023-06-24T12:21:57;5.63;;;3.92;;
25780;SDS011;13626;48.128;11.628;2023-06-24T12:24:25;4.38;;;3.75;;
25780;SDS011;13626;48.128;11.628;2023-06-24T12:26:52;4.90;;;3.85;;
25780;SDS011;13626;48.128;11.628;2023-06-24T12:29:21;5.40;;;4.30;;
25780;SDS011;13626;48.128;11.628;2023-06-24T12:31:48;4.47;;;3.70;;
25780;SDS011;13626;48.128;11.628;2023-06-24T12:34:17;4.65;;;3.90;;
25780;SDS011;13626;48.128;11.628;2023-06-24T12:36:44;6.03;;;3.80;;
25780;SDS011;13626;48.128;11.628;2023-06-24T12:39:12;4.63;;;4.22;;
25780;SDS011;13626;48.128;11.628;2023-06-24T12:41:45;3.90;;;3.53;;
25780;SDS011;13626;48.128;11.628;2023-06-24T12:44:13;4.45;;;3.97;;
25780;SDS011;13626;48.128;11.628;2023-06-24T12:46:44;7.25;;;4.68;;
25780;SDS011;13626;48.128;11.628;2023-06-24T12:49:11;6.75;;;4.35;;
25780;SDS011;13626;48.128;11.628;2023-06-24T12:51:38;4.78;;;3.95;;
25780;SDS011;13626;48.128;11.628;2023-06-24T12:54:06;6.45;;;4.70;;
25780;SDS011;13626;48.128;11.628;2023-06-24T12:56:33;5.07;;;3.92;;
25780;SDS011;13626;48.128;11.628;2023-06-24T12:59:00;4.97;;;4.35;;
25780;SDS011;13626;48.128;11.628;2023-06-24T13:01:28;7.72;;;4.05;;
25780;SDS011;13626;48.128;11.628;2023-06-24T13:03:55;4.30;;;3.85;;
25780;SDS011;13626;48.128;11.628;2023-06-24T13:06:22;4.15;;;3.75;;
25780;SDS011;13626;48.128;11.628;2023-06-24T13:08:50;3.78;;;3.38;;
25780;SDS011;13626;48.128;11.628;2023-06-24T13:11:17;5.85;;;4.18;;
25780;SDS011;13626;48.128;11.628;2023-06-24T13:13:45;5.00;;;3.83;;
25780;SDS011;13626;48.128;11.628;2023-06-24T13:16:12;6.50;;;3.95;;
25780;SDS011;13626;48.128;11.628;2023-06-24T13:18:39;5.10;;;4.05;;
25780;SDS011;13626;48.128;11.628;2023-06-24T13:21:06;4.75;;;3.33;;
25780;SDS011;13626;48.128;11.628;2023-06-24T13:23:41;4.53;;;3.88;;
25780;SDS011;13626;48.128;11.628;2023-06-24T13:26:09;4.20;;;3.80;;
25780;SDS011;13626;48.128;11.628;2023-06-24T13:28:37;4.80;;;3.65;;
25780;SDS011;13626;48.128;11.628;2023-06-24T13:31:05;4.00;;;3.60;;
25780;SDS011;13626;48.128;11.628;2023-06-24T13:33:32;4.22;;;3.80;;
25780;SDS011;13626;48.128;11.628;2023-06-24T13:36:00;3.85;;;3.53;;
25780;SDS011;13626;48.128;11.628;2023-06-24T13:38:29;4.22;;;3.38;;
25780;SDS011;13626;48.128;11.628;2023-06-24T13:40:56;4.63;;;3.60;;
25780;SDS011;13626;48.128;11.628;2023-06-24T13:43:24;5.72;;;4.15;;
25780;SDS011;13626;48.128;11.628;2023-06-24T13:45:51;5.10;;;3.97;;
25780;SDS011;13626;48.128;11.628;2023-06-24T13:48:18;3.92;;;3.42;;
25780;SDS011;13626;48.128;11.628;2023-06-24T13:50:46;6.00;;;4.05;;
25780;SDS011;13626;48.128;11.628;2023-06-24T13:53:13;3.90;;;3.45;;
25780;SDS011;13626;48.128;11.628;2023-06-24T13:55:40;4.55;;;3.20;;
25780;SDS011;13626;48.128;11.628;2023-06-24T13:58:08;4.22;;;3.38;;
25780;SDS011;13626;48.128;11.628;2023-06-24T14:00:35;4.95;;;3.88;;
25780;SDS011;13626;48.128;11.628;2023-06-24T14:03:03;6.60;;;3.47;;
25780;SDS011;13626;48.128;11.628;2023-06-24T14:05:31;5.72;;;4.38;;
25780;SDS011;13626;48.128;11.628;2023-06-24T14:07:58;5.68;;;3.75;;
25780;SDS011;13626;48.128;11.628;2023-06-24T14:10:26;4.22;;;3.50;;
25780;SDS011;13626;48.128;11.628;2023-06-24T14:12:54;3.38;;;3.08;;
25780;SDS011;13626;48.128;11.628;2023-06-24T14:15:21;3.92;;;3.53;;
25780;SDS011;13626;48.128;11.628;2023-06-24T14:17:48;4.78;;;4.07;;
25780;SDS011;13626;48.128;11.628;2023-06-24T14:20:16;4.03;;;3.63;;
25780;SDS011;13626;48.128;11.628;2023-06-24T14:22:43;5.60;;;3.45;;
25780;SDS011;13626;48.128;11.628;2023-06-24T14:25:11;4.68;;;3.30;;
25780;SDS011;13626;48.128;11.628;2023-06-24T14:27:38;4.60;;;3.72;;
25780;SDS011;13626;48.128;11.628;2023-06-24T14:30:06;3.95;;;3.42;;
25780;SDS011;13626;48.128;11.628;2023-06-24T14:32:33;3.95;;;3.55;;
25780;SDS011;13626;48.128;11.628;2023-06-24T14:35:01;3.78;;;3.35;;
25780;SDS011;13626;48.128;11.628;2023-06-24T14:37:29;6.28;;;3.80;;
25780;SDS011;13626;48.128;11.628;2023-06-24T14:39:56;4.93;;;3.35;;
25780;SDS011;13626;48.128;11.628;2023-06-24T14:42:23;3.72;;;3.40;;
25780;SDS011;13626;48.128;11.628;2023-06-24T14:44:51;4.05;;;3.42;;
25780;SDS011;13626;48.128;11.628;2023-06-24T14:47:18;4.85;;;3.92;;
25780;SDS011;13626;48.128;11.628;2023-06-24T14:49:45;6.28;;;3.72;;
25780;SDS011;13626;48.128;11.628;2023-06-24T14:52:13;4.35;;;3.95;;
25780;SDS011;13626;48.128;11.628;2023-06-24T14:54:40;6.18;;;4.25;;
25780;SDS011;13626;48.128;11.628;2023-06-24T14:57:07;6.65;;;4.20;;